createdAt,value
2022-09-27T00:01:23.827Z,9.69
2022-09-27T00:03:55.177Z,9.75
2022-09-27T00:06:27.903Z,9.72
2022-09-27T00:08:54.833Z,9.72
2022-09-27T00:11:35.186Z,9.70
2022-09-27T00:14:02.527Z,9.67
2022-09-27T00:16:33.662Z,9.65
2022-09-27T00:19:05.493Z,9.65
2022-09-27T00:21:32.761Z,9.66
2022-09-27T00:23:59.660Z,9.69
2022-09-27T00:26:26.517Z,9.66
2022-09-27T00:28:53.025Z,9.57
2022-09-27T00:31:22.815Z,9.56
2022-09-27T00:33:51.258Z,9.68
2022-09-27T00:36:19.372Z,9.43
2022-09-27T00:38:46.454Z,9.61
2022-09-27T00:41:20.998Z,9.70
2022-09-27T00:43:51.939Z,9.70
2022-09-27T00:46:33.801Z,9.04
2022-09-27T00:49:18.867Z,9.06
2022-09-27T00:51:50.193Z,9.28
2022-09-27T00:54:19.583Z,9.72
2022-09-27T00:56:46.937Z,9.37
2022-09-27T00:59:26.705Z,9.40
2022-09-27T01:01:53.226Z,9.66
2022-09-27T01:04:24.290Z,9.45
2022-09-27T01:06:51.463Z,9.61
2022-09-27T01:09:18.750Z,9.61
2022-09-27T01:12:03.789Z,9.61
2022-09-27T01:14:45.688Z,9.46
2022-09-27T01:17:41.361Z,9.56
2022-09-27T01:20:31.250Z,9.49
2022-09-27T01:23:27.530Z,9.59
2022-09-27T01:25:59.895Z,9.58
2022-09-27T01:28:35.097Z,9.58
2022-09-27T01:31:26.954Z,9.50
2022-09-27T01:34:14.957Z,9.61
2022-09-27T01:37:03.022Z,9.62
2022-09-27T01:39:29.385Z,9.59
2022-09-27T01:42:01.690Z,9.62
2022-09-27T01:44:35.396Z,9.36
2022-09-27T01:47:08.586Z,9.41
2022-09-27T01:50:01.586Z,9.57
2022-09-27T01:52:43.753Z,9.52
2022-09-27T01:55:14.982Z,8.23
2022-09-27T01:57:50.952Z,9.33
2022-09-27T02:00:17.506Z,9.47
2022-09-27T02:03:13.242Z,9.42
2022-09-27T02:05:46.942Z,9.06
2022-09-27T02:08:34.273Z,9.26
2022-09-27T02:11:04.505Z,9.33
2022-09-27T02:13:39.609Z,9.34
2022-09-27T02:16:23.770Z,9.34
2022-09-27T02:18:55.392Z,9.34
2022-09-27T02:21:29.558Z,9.33
2022-09-27T02:24:02.498Z,9.03
2022-09-27T02:26:41.123Z,9.20
2022-09-27T02:29:11.506Z,9.28
2022-09-27T02:31:38.221Z,9.25
2022-09-27T02:34:15.206Z,9.11
2022-09-27T02:36:41.889Z,8.64
2022-09-27T02:39:08.886Z,8.97
2022-09-27T02:41:35.598Z,9.32
2022-09-27T02:44:06.527Z,9.26
2022-09-27T02:46:44.892Z,9.19
2022-09-27T02:49:20.409Z,9.11
2022-09-27T02:52:13.855Z,9.13
2022-09-27T02:55:11.003Z,9.15
2022-09-27T02:57:49.418Z,9.18
2022-09-27T03:00:29.092Z,9.07
2022-09-27T03:03:01.722Z,9.18
2022-09-27T03:05:32.100Z,9.22
2022-09-27T03:07:58.566Z,8.68
2022-09-27T03:10:28.204Z,9.27
2022-09-27T03:12:56.702Z,8.92
2022-09-27T03:15:23.046Z,9.23
2022-09-27T03:17:49.433Z,8.75
2022-09-27T03:20:15.842Z,9.08
2022-09-27T03:22:42.233Z,8.61
2022-09-27T03:25:09.392Z,8.87
2022-09-27T03:27:35.792Z,8.24
2022-09-27T03:30:02.196Z,8.65
2022-09-27T03:32:28.690Z,8.58
2022-09-27T03:34:55.329Z,8.57
2022-09-27T03:37:22.358Z,8.24
2022-09-27T03:39:48.818Z,8.18
2022-09-27T03:42:15.188Z,8.29
2022-09-27T03:44:41.521Z,8.46
2022-09-27T03:47:08.010Z,8.05
2022-09-27T03:49:34.352Z,8.47
2022-09-27T03:52:00.921Z,8.46
2022-09-27T03:54:27.316Z,8.29
2022-09-27T03:56:53.629Z,8.28
2022-09-27T03:59:19.999Z,8.28
2022-09-27T04:01:46.354Z,8.03
2022-09-27T04:04:12.936Z,7.89
2022-09-27T04:06:39.242Z,7.33
2022-09-27T04:09:05.669Z,7.59
2022-09-27T04:11:32.025Z,7.92
2022-09-27T04:13:58.755Z,7.75
2022-09-27T04:16:25.442Z,7.77
2022-09-27T04:18:52.270Z,7.54
2022-09-27T04:21:20.492Z,7.81
2022-09-27T04:23:47.161Z,7.52
2022-09-27T04:26:13.660Z,7.86
2022-09-27T04:28:40.721Z,7.45
2022-09-27T04:31:07.163Z,7.86
2022-09-27T04:33:33.609Z,7.31
2022-09-27T04:36:18.357Z,7.65
2022-09-27T04:38:44.702Z,7.65
2022-09-27T04:41:11.017Z,7.82
2022-09-27T04:43:37.381Z,7.73
2022-09-27T04:46:03.881Z,7.57
2022-09-27T04:48:30.293Z,7.66
2022-09-27T04:51:02.270Z,7.75
2022-09-27T04:53:32.494Z,7.78
2022-09-27T04:55:59.496Z,7.36
2022-09-27T04:58:25.990Z,7.73
2022-09-27T05:00:52.346Z,7.36
2022-09-27T05:03:19.389Z,7.97
2022-09-27T05:05:45.796Z,7.56
2022-09-27T05:08:12.149Z,7.67
2022-09-27T05:10:38.488Z,7.85
2022-09-27T05:13:05.083Z,7.82
2022-09-27T05:15:31.395Z,7.18
2022-09-27T05:17:58.710Z,7.87
2022-09-27T05:20:25.593Z,6.75
2022-09-27T05:22:52.342Z,7.79
2022-09-27T05:25:19.406Z,7.76
2022-09-27T05:27:45.791Z,7.52
2022-09-27T05:30:12.378Z,7.52
2022-09-27T05:32:49.951Z,7.90
2022-09-27T05:35:20.810Z,7.96
2022-09-27T05:37:55.197Z,7.84
2022-09-27T05:40:40.211Z,8.10
2022-09-27T05:43:08.228Z,7.86
2022-09-27T05:45:34.728Z,7.76
2022-09-27T05:48:01.228Z,8.16
2022-09-27T05:50:27.877Z,7.95
2022-09-27T05:52:54.435Z,8.16
2022-09-27T05:55:21.519Z,8.19
2022-09-27T05:57:57.306Z,8.24
2022-09-27T06:00:25.797Z,8.02
2022-09-27T06:03:00.597Z,7.87
2022-09-27T06:05:29.740Z,7.92
2022-09-27T06:08:01.593Z,7.96
2022-09-27T06:10:29.388Z,8.37
2022-09-27T06:13:12.141Z,8.40
2022-09-27T06:15:41.139Z,8.42
2022-09-27T06:18:17.869Z,8.10
2022-09-27T06:20:44.575Z,8.44
2022-09-27T06:23:16.329Z,8.57
2022-09-27T06:25:42.929Z,8.23
2022-09-27T06:28:10.683Z,8.51
2022-09-27T06:30:41.703Z,8.76
2022-09-27T06:33:11.773Z,8.75
2022-09-27T06:35:38.172Z,8.45
2022-09-27T06:38:10.201Z,8.91
2022-09-27T06:40:37.262Z,8.51
2022-09-27T06:43:09.242Z,8.26
2022-09-27T06:45:36.634Z,8.97
2022-09-27T06:48:04.849Z,8.89
2022-09-27T06:50:33.697Z,8.57
2022-09-27T06:53:00.653Z,8.99
2022-09-27T06:55:27.274Z,8.62
2022-09-27T06:58:19.842Z,9.02
2022-09-27T07:00:49.862Z,8.88
2022-09-27T07:03:16.693Z,8.94
2022-09-27T07:05:43.207Z,8.71
2022-09-27T07:08:11.868Z,8.93
2022-09-27T07:10:39.846Z,8.45
2022-09-27T07:13:08.227Z,8.16
2022-09-27T07:15:38.491Z,8.84
2022-09-27T07:18:06.412Z,8.81
2022-09-27T07:20:35.689Z,8.78
2022-09-27T07:23:02.101Z,8.79
2022-09-27T07:25:28.466Z,9.18
2022-09-27T07:27:54.785Z,8.95
2022-09-27T07:30:21.609Z,8.63
2022-09-27T07:32:48.077Z,8.55
2022-09-27T07:35:15.505Z,8.62
2022-09-27T07:37:42.881Z,8.93
2022-09-27T07:40:10.334Z,9.01
2022-09-27T07:42:41.573Z,8.69
2022-09-27T07:45:09.525Z,8.49
2022-09-27T07:47:37.813Z,8.68
2022-09-27T07:50:10.147Z,9.10
2022-09-27T07:52:47.231Z,9.01
2022-09-27T07:55:14.985Z,8.93
2022-09-27T07:57:41.546Z,8.82
2022-09-27T08:00:13.836Z,9.47
2022-09-27T08:02:40.889Z,9.65
2022-09-27T08:05:07.818Z,9.76
2022-09-27T08:07:34.235Z,9.58
2022-09-27T08:10:00.662Z,10.14
2022-09-27T08:12:27.056Z,9.85
2022-09-27T08:14:53.473Z,10.30
2022-09-27T08:17:19.901Z,10.34
2022-09-27T08:19:48.181Z,9.75
2022-09-27T08:22:14.791Z,10.38
2022-09-27T08:24:41.182Z,9.64
2022-09-27T08:27:11.808Z,10.31
2022-09-27T08:29:41.759Z,9.96
2022-09-27T08:32:11.858Z,10.30
2022-09-27T08:34:38.736Z,10.31
2022-09-27T08:37:05.397Z,10.27
2022-09-27T08:39:31.850Z,10.19
2022-09-27T08:42:01.278Z,10.36
2022-09-27T08:45:03.683Z,10.56
2022-09-27T08:47:45.533Z,9.81
2022-09-27T08:50:28.619Z,10.77
2022-09-27T08:53:00.928Z,10.72
2022-09-27T08:55:37.392Z,11.33
2022-09-27T08:58:13.270Z,11.11
2022-09-27T09:00:42.706Z,11.26
2022-09-27T09:03:18.945Z,11.15
2022-09-27T09:06:05.294Z,11.68
2022-09-27T09:08:37.484Z,11.82
2022-09-27T09:11:40.561Z,11.47
2022-09-27T09:14:33.197Z,11.79
2022-09-27T09:17:19.569Z,11.91
2022-09-27T09:19:48.966Z,12.13
2022-09-27T09:22:33.486Z,12.10
2022-09-27T09:25:17.141Z,11.80
2022-09-27T09:27:55.443Z,11.41
2022-09-27T09:30:30.678Z,11.77
2022-09-27T09:33:16.663Z,11.12
2022-09-27T09:35:47.156Z,12.02
2022-09-27T09:38:40.677Z,12.74
2022-09-27T09:41:31.594Z,12.94
2022-09-27T09:44:10.412Z,12.83
2022-09-27T09:46:44.887Z,12.69
2022-09-27T09:49:15.090Z,12.49
2022-09-27T09:51:47.565Z,12.45
2022-09-27T09:54:22.381Z,12.43
2022-09-27T09:56:53.210Z,12.64
2022-09-27T09:59:39.561Z,13.02
2022-09-27T10:02:30.925Z,12.90
2022-09-27T10:04:57.542Z,12.76
2022-09-27T10:07:25.805Z,12.33
2022-09-27T10:09:56.024Z,12.22
2022-09-27T10:12:22.795Z,11.92
2022-09-27T10:14:50.540Z,12.09
2022-09-27T10:17:22.237Z,12.03
2022-09-27T10:19:52.014Z,12.04
2022-09-27T10:22:42.758Z,12.17
2022-09-27T10:25:10.026Z,11.84
2022-09-27T10:27:52.428Z,12.36
2022-09-27T10:30:35.623Z,12.50
2022-09-27T10:33:14.572Z,12.51
2022-09-27T10:35:46.861Z,12.37
2022-09-27T10:38:16.999Z,12.57
2022-09-27T10:40:43.576Z,12.45
2022-09-27T10:43:29.857Z,12.49
2022-09-27T10:46:16.709Z,12.16
2022-09-27T10:48:44.141Z,11.97
2022-09-27T10:51:28.854Z,11.95
2022-09-27T10:54:00.361Z,12.34
2022-09-27T10:56:32.827Z,12.63
2022-09-27T10:59:00.420Z,12.67
2022-09-27T11:01:38.507Z,12.44
2022-09-27T11:04:04.908Z,12.83
2022-09-27T11:06:37.803Z,12.68
2022-09-27T11:09:20.485Z,12.49
2022-09-27T11:11:46.893Z,12.82
2022-09-27T11:14:22.519Z,12.35
2022-09-27T11:17:25.923Z,12.76
2022-09-27T11:20:11.116Z,12.79
2022-09-27T11:22:49.697Z,12.91
2022-09-27T11:28:48.758Z,13.03
2022-09-27T11:31:25.595Z,13.18
2022-09-27T11:33:54.867Z,13.63
2022-09-27T11:36:34.261Z,13.87
2022-09-27T11:39:13.242Z,13.96
2022-09-27T11:42:43.892Z,14.13
2022-09-27T11:48:37.628Z,14.13
2022-09-27T11:51:32.262Z,13.40
2022-09-27T11:54:36.321Z,13.79
2022-09-27T11:57:23.118Z,13.89
2022-09-27T12:00:24.310Z,13.80
2022-09-27T12:03:20.680Z,13.68
2022-09-27T12:06:03.580Z,13.89
2022-09-27T12:08:58.419Z,13.74
2022-09-27T12:11:34.752Z,14.15
2022-09-27T12:14:07.122Z,14.01
2022-09-27T12:16:37.065Z,12.42
2022-09-27T12:19:04.108Z,13.09
2022-09-27T12:21:33.371Z,13.14
2022-09-27T12:24:01.821Z,12.21
2022-09-27T12:26:34.965Z,12.64
2022-09-27T12:29:13.454Z,12.17
2022-09-27T12:32:13.987Z,12.29
2022-09-27T12:34:50.796Z,12.00
2022-09-27T12:37:24.956Z,11.91
2022-09-27T12:39:59.887Z,11.40
2022-09-27T12:42:26.182Z,11.64
2022-09-27T12:44:53.333Z,10.53
2022-09-27T12:47:47.358Z,11.62
2022-09-27T12:50:20.295Z,11.64
2022-09-27T12:52:52.493Z,11.32
2022-09-27T12:55:53.552Z,10.93
2022-09-27T12:58:22.933Z,11.00
2022-09-27T13:01:26.296Z,10.47
2022-09-27T13:03:52.641Z,11.10
2022-09-27T13:06:33.623Z,11.24
2022-09-27T13:09:25.268Z,11.00
2022-09-27T13:12:13.164Z,11.76
2022-09-27T13:15:06.649Z,11.91
2022-09-27T13:17:40.657Z,12.04
2022-09-27T13:20:35.034Z,12.19
2022-09-27T13:23:02.646Z,12.10
2022-09-27T13:25:56.316Z,12.31
2022-09-27T13:28:32.031Z,12.20
2022-09-27T13:31:00.881Z,11.73
2022-09-27T13:33:49.275Z,12.54
2022-09-27T13:36:24.476Z,11.54
2022-09-27T13:39:06.183Z,12.72
2022-09-27T13:41:44.721Z,12.76
2022-09-27T13:44:33.203Z,12.65
2022-09-27T13:47:02.632Z,12.71
2022-09-27T13:49:40.765Z,11.27
2022-09-27T13:52:30.029Z,11.90
2022-09-27T13:54:58.053Z,12.79
2022-09-27T13:57:51.477Z,12.73
2022-09-27T14:00:27.629Z,12.78
2022-09-27T14:03:51.546Z,12.49
2022-09-27T14:06:22.527Z,12.47
2022-09-27T14:08:56.808Z,12.69
2022-09-27T14:11:27.911Z,11.24
2022-09-27T14:13:55.777Z,12.53
2022-09-27T14:16:22.768Z,12.40
2022-09-27T14:18:53.738Z,12.06
2022-09-27T14:21:29.308Z,12.51
2022-09-27T14:24:24.370Z,12.28
2022-09-27T14:27:03.049Z,11.65
2022-09-27T14:29:33.140Z,12.23
2022-09-27T14:32:10.410Z,12.16
2022-09-27T14:34:36.910Z,11.84
2022-09-27T14:37:22.639Z,12.20
2022-09-27T14:40:04.993Z,11.92
2022-09-27T14:42:36.437Z,11.82
2022-09-27T14:45:24.841Z,11.96
2022-09-27T14:47:51.721Z,11.99
2022-09-27T14:50:29.993Z,11.98
2022-09-27T14:52:59.772Z,12.00
2022-09-27T14:55:31.178Z,11.81
2022-09-27T14:58:00.480Z,11.74
2022-09-27T15:00:32.686Z,11.81
2022-09-27T15:03:03.067Z,12.03
2022-09-27T15:05:33.197Z,11.92
2022-09-27T15:08:02.238Z,11.51
2022-09-27T15:10:31.305Z,11.93
2022-09-27T15:13:01.323Z,11.62
2022-09-27T15:15:33.965Z,11.88
2022-09-27T15:18:01.187Z,11.30
2022-09-27T15:20:35.185Z,11.66
2022-09-27T15:23:04.024Z,11.64
2022-09-27T15:25:38.306Z,11.66
2022-09-27T15:28:13.305Z,11.58
2022-09-27T15:30:42.497Z,11.00
2022-09-27T15:33:21.150Z,11.27
2022-09-27T15:35:53.538Z,10.67
2022-09-27T15:38:32.643Z,10.72
2022-09-27T15:41:12.909Z,11.04
2022-09-27T15:43:46.017Z,9.58
2022-09-27T15:46:15.105Z,10.96
2022-09-27T15:48:41.978Z,11.03
2022-09-27T15:51:47.781Z,11.04
2022-09-27T15:54:17.159Z,11.12
2022-09-27T15:56:44.018Z,10.45
2022-09-27T15:59:21.802Z,10.63
2022-09-27T16:01:48.889Z,10.85
2022-09-27T16:04:15.477Z,10.93
2022-09-27T16:06:44.792Z,10.83
2022-09-27T16:09:17.952Z,10.77
2022-09-27T16:11:45.617Z,10.31
2022-09-27T16:14:16.414Z,10.71
2022-09-27T16:16:45.626Z,10.63
2022-09-27T16:19:12.676Z,10.58
2022-09-27T16:21:39.178Z,9.45
2022-09-27T16:24:06.462Z,9.90
2022-09-27T16:26:33.914Z,9.44
2022-09-27T16:29:00.304Z,10.38
2022-09-27T16:31:26.701Z,10.31
2022-09-27T16:33:53.279Z,10.26
2022-09-27T16:36:20.539Z,10.31
2022-09-27T16:38:51.397Z,10.51
2022-09-27T16:41:19.171Z,10.50
2022-09-27T16:43:46.160Z,10.46
2022-09-27T16:46:15.841Z,10.38
2022-09-27T16:48:46.930Z,10.17
2022-09-27T16:51:36.717Z,10.35
2022-09-27T16:54:05.659Z,9.23
2022-09-27T16:56:33.357Z,9.91
2022-09-27T16:59:04.396Z,10.09
2022-09-27T17:01:31.816Z,8.93
2022-09-27T17:03:59.748Z,10.12
2022-09-27T17:06:28.537Z,9.81
2022-09-27T17:08:55.943Z,9.98
2022-09-27T17:11:23.029Z,9.59
2022-09-27T17:13:54.262Z,9.82
2022-09-27T17:16:20.583Z,8.15
2022-09-27T17:18:46.998Z,9.74
2022-09-27T17:21:13.413Z,9.74
2022-09-27T17:23:39.724Z,9.75
2022-09-27T17:26:09.242Z,9.75
2022-09-27T17:28:36.623Z,9.72
2022-09-27T17:31:10.188Z,9.42
2022-09-27T17:33:43.233Z,9.24
2022-09-27T17:36:12.311Z,9.53
2022-09-27T17:38:39.654Z,9.67
2022-09-27T17:41:12.094Z,9.65
2022-09-27T17:43:46.513Z,9.65
2022-09-27T17:46:12.948Z,9.63
2022-09-27T17:48:57.831Z,9.34
2022-09-27T17:51:24.158Z,8.84
2022-09-27T17:53:51.803Z,9.57
2022-09-27T17:56:18.206Z,9.57
2022-09-27T17:58:49.642Z,9.55
2022-09-27T18:01:17.460Z,9.52
2022-09-27T18:03:47.000Z,8.87
2022-09-27T18:06:16.094Z,8.79
2022-09-27T18:08:43.065Z,9.06
2022-09-27T18:11:15.223Z,9.39
2022-09-27T18:13:43.569Z,9.08
2022-09-27T18:16:12.601Z,9.38
2022-09-27T18:18:40.932Z,8.85
2022-09-27T18:21:13.997Z,9.34
2022-09-27T18:23:42.032Z,9.17
2022-09-27T18:26:09.326Z,8.05
2022-09-27T18:28:38.098Z,7.97
2022-09-27T18:31:10.084Z,9.21
2022-09-27T18:33:37.260Z,8.16
2022-09-27T18:36:06.698Z,9.10
2022-09-27T18:38:34.509Z,9.10
2022-09-27T18:41:13.026Z,9.07
2022-09-27T18:43:40.208Z,9.07
2022-09-27T18:46:34.133Z,9.08
2022-09-27T18:48:56.305Z,8.64
2022-09-27T18:51:26.574Z,8.26
2022-09-27T18:53:57.901Z,8.57
2022-09-27T18:56:25.125Z,9.08
2022-09-27T18:58:52.169Z,9.04
2022-09-27T19:01:20.383Z,8.70
2022-09-27T19:03:47.190Z,8.24
2022-09-27T19:06:18.807Z,8.31
2022-09-27T19:08:45.689Z,8.32
2022-09-27T19:11:17.739Z,8.84
2022-09-27T19:13:51.257Z,8.68
2022-09-27T19:16:18.255Z,8.34
2022-09-27T19:18:44.655Z,8.29
2022-09-27T19:21:13.268Z,8.64
2022-09-27T19:23:40.468Z,8.88
2022-09-27T19:26:10.854Z,8.75
2022-09-27T19:28:39.874Z,8.92
2022-09-27T19:31:12.926Z,8.57
2022-09-27T19:33:40.165Z,8.75
2022-09-27T19:36:09.078Z,8.64
2022-09-27T19:38:37.079Z,8.92
2022-09-27T19:41:09.338Z,8.35
2022-09-27T19:43:35.773Z,8.14
2022-09-27T19:46:11.975Z,8.23
2022-09-27T19:48:38.734Z,7.64
2022-09-27T19:51:06.728Z,9.00
2022-09-27T19:53:34.528Z,8.07
2022-09-27T19:56:03.927Z,9.00
2022-09-27T19:58:31.533Z,8.83
2022-09-27T20:01:15.243Z,7.81
2022-09-27T20:03:43.552Z,8.98
2022-09-27T20:06:13.410Z,9.01
2022-09-27T20:08:40.189Z,8.67
2022-09-27T20:11:09.399Z,8.59
2022-09-27T20:13:36.953Z,8.74
2022-09-27T20:16:14.282Z,9.03
2022-09-27T20:18:45.390Z,9.01
2022-09-27T20:21:11.886Z,9.01
2022-09-27T20:23:38.877Z,9.03
2022-09-27T20:26:09.663Z,8.64
2022-09-27T20:28:40.816Z,8.41
2022-09-27T20:31:07.478Z,8.70
2022-09-27T20:33:52.267Z,9.02
2022-09-27T20:36:21.362Z,8.99
2022-09-27T20:38:53.945Z,9.02
2022-09-27T20:41:24.517Z,8.97
2022-09-27T20:44:03.446Z,8.95
2022-09-27T20:46:30.507Z,8.10
2022-09-27T20:48:59.650Z,8.77
2022-09-27T20:51:27.656Z,8.33
2022-09-27T20:53:54.366Z,7.65
2022-09-27T20:56:21.796Z,8.61
2022-09-27T20:58:49.802Z,8.90
2022-09-27T21:01:18.037Z,8.90
2022-09-27T21:03:45.456Z,8.62
2022-09-27T21:06:16.207Z,8.37
2022-09-27T21:08:42.867Z,8.85
2022-09-27T21:11:13.666Z,8.56
2022-09-27T21:13:41.339Z,7.27
2022-09-27T21:16:10.202Z,8.88
2022-09-27T21:18:37.051Z,8.46
2022-09-27T21:21:06.571Z,8.90
2022-09-27T21:23:34.434Z,8.32
2022-09-27T21:26:03.501Z,8.31
2022-09-27T21:28:49.712Z,7.82
2022-09-27T21:31:27.158Z,8.76
2022-09-27T21:33:55.952Z,8.73
2022-09-27T21:36:23.540Z,8.71
2022-09-27T21:38:50.579Z,8.32
2022-09-27T21:41:17.620Z,8.11
2022-09-27T21:43:46.429Z,7.85
2022-09-27T21:46:18.630Z,8.45
2022-09-27T21:48:47.463Z,7.68
2022-09-27T21:51:19.718Z,8.43
2022-09-27T21:53:51.989Z,8.37
2022-09-27T21:56:19.313Z,8.21
2022-09-27T21:58:45.787Z,6.97
2022-09-27T22:01:21.732Z,8.24
2022-09-27T22:03:49.401Z,7.54
2022-09-27T22:06:18.535Z,7.32
2022-09-27T22:08:46.496Z,7.32
2022-09-27T22:11:18.778Z,7.63
2022-09-27T22:13:45.586Z,7.26
2022-09-27T22:16:14.742Z,7.21
2022-09-27T22:18:49.579Z,7.27
2022-09-27T22:21:18.959Z,7.93
2022-09-27T22:23:45.541Z,7.29
2022-09-27T22:26:13.490Z,7.93
2022-09-27T22:28:40.263Z,7.28
2022-09-27T22:31:08.403Z,7.54
2022-09-27T22:33:35.169Z,7.71
2022-09-27T22:36:01.903Z,7.40
2022-09-27T22:38:28.273Z,6.79
2022-09-27T22:40:56.269Z,6.75
2022-09-27T22:43:23.671Z,8.06
2022-09-27T22:45:50.677Z,7.96
2022-09-27T22:48:17.036Z,7.11
2022-09-27T22:50:43.399Z,7.86
2022-09-27T22:53:09.684Z,7.96
2022-09-27T22:55:36.077Z,7.97
2022-09-27T22:58:02.401Z,6.85
2022-09-27T23:00:29.439Z,6.62
2022-09-27T23:02:57.006Z,8.05
2022-09-27T23:05:23.837Z,7.51
2022-09-27T23:07:52.341Z,7.77
2022-09-27T23:10:20.237Z,7.82
2022-09-27T23:12:47.072Z,7.90
2022-09-27T23:15:16.234Z,7.43
2022-09-27T23:17:42.618Z,6.74
2022-09-27T23:20:09.383Z,7.67
2022-09-27T23:22:35.706Z,7.46
2022-09-27T23:25:02.112Z,7.21
2022-09-27T23:27:45.104Z,7.71
2022-09-27T23:30:13.177Z,7.81
2022-09-27T23:32:39.768Z,6.88
2022-09-27T23:35:06.584Z,7.49
2022-09-27T23:37:33.086Z,6.21
2022-09-27T23:39:59.439Z,7.05
2022-09-27T23:42:26.954Z,7.30
2022-09-27T23:44:53.569Z,6.93
2022-09-27T23:47:19.938Z,7.43
2022-09-27T23:49:46.308Z,6.86
2022-09-27T23:52:12.927Z,7.64
2022-09-27T23:54:39.641Z,6.54
2022-09-27T23:57:06.026Z,7.01
2022-09-27T23:59:32.414Z,7.10
